Time;durP1;ratioP1;P1;durP2;ratioP2;P2;SDS_P1;SDS_P2;PMS_P1;PMS_P2;Temp;Humidity;BMP_temperature;BMP_pressure;BME280_temperature;BME280_humidity;BME280_pressure;Samples;Min_cycle;Max_cycle;Signal;HPM_P1;HPM_P2
2022/01/29 00:02:24;;;;;;;12.97;8.20;;;;;;;;;;5095362;28;20028;-57
2022/01/29 00:04:50;;;;;;;12.10;6.27;;;;;;;;;;5095626;28;20500;-56
2022/01/29 00:07:16;;;;;;;8.93;7.17;;;;;;;;;;5095330;28;20020;-57
2022/01/29 00:09:44;;;;;;;11.90;7.37;;;;;;;;;;5094780;28;20059;-57
2022/01/29 00:12:10;;;;;;;10.53;6.53;;;;;;;;;;5095240;28;20114;-57
2022/01/29 00:14:36;;;;;;;11.10;7.30;;;;;;;;;;5095049;28;20090;-57
2022/01/29 00:17:03;;;;;;;10.80;8.30;;;;;;;;;;5095259;28;20047;-58
2022/01/29 00:19:29;;;;;;;9.07;7.47;;;;;;;;;;5094761;28;20119;-57
2022/01/29 00:21:57;;;;;;;9.70;7.30;;;;;;;;;;5095135;28;20028;-57
2022/01/29 00:24:24;;;;;;;10.10;7.37;;;;;;;;;;5093744;28;20028;-58
2022/01/29 00:26:50;;;;;;;8.03;6.23;;;;;;;;;;5094884;28;20101;-57
2022/01/29 00:29:20;;;;;;;8.17;6.70;;;;;;;;;;5094141;28;20474;-58
2022/01/29 00:31:46;;;;;;;8.45;6.40;;;;;;;;;;5095045;28;20071;-57
2022/01/29 00:34:12;;;;;;;8.93;7.10;;;;;;;;;;5094724;28;20023;-58
2022/01/29 00:36:39;;;;;;;9.63;6.43;;;;;;;;;;5094924;28;20064;-58
2022/01/29 00:39:05;;;;;;;7.00;6.13;;;;;;;;;;5093933;28;20035;-57
2022/01/29 00:41:30;;;;;;;6.90;5.43;;;;;;;;;;5094959;28;20024;-57
2022/01/29 00:43:57;;;;;;;11.40;8.43;;;;;;;;;;5094411;28;20078;-57
2022/01/29 00:46:23;;;;;;;10.73;6.30;;;;;;;;;;5094659;28;20414;-57
2022/01/29 00:48:48;;;;;;;7.53;6.07;;;;;;;;;;5094060;28;20117;-57
2022/01/29 00:51:14;;;;;;;11.13;7.33;;;;;;;;;;5094529;28;20028;-57
2022/01/29 00:53:40;;;;;;;9.40;5.60;;;;;;;;;;5094393;28;20474;-57
2022/01/29 00:56:09;;;;;;;7.30;5.47;;;;;;;;;;5094516;28;20137;-57
2022/01/29 00:58:35;;;;;;;8.77;7.20;;;;;;;;;;5092629;28;20033;-57
2022/01/29 01:01:01;;;;;;;11.33;6.90;;;;;;;;;;5094628;28;20032;-57
2022/01/29 01:03:27;;;;;;;10.07;5.23;;;;;;;;;;5094206;28;20109;-57
2022/01/29 01:05:53;;;;;;;6.40;5.13;;;;;;;;;;5094351;28;20024;-56
2022/01/29 01:08:19;;;;;;;10.17;5.47;;;;;;;;;;5093466;28;20028;-57
2022/01/29 01:10:45;;;;;;;6.97;6.27;;;;;;;;;;5094291;28;20102;-57
2022/01/29 01:13:11;;;;;;;7.67;5.00;;;;;;;;;;5093889;28;20027;-56
2022/01/29 01:15:37;;;;;;;8.57;5.47;;;;;;;;;;5094307;28;20105;-57
2022/01/29 01:18:03;;;;;;;9.80;4.87;;;;;;;;;;5093465;28;20044;-57
2022/01/29 01:20:29;;;;;;;7.27;5.93;;;;;;;;;;5094160;28;20024;-57
2022/01/29 01:22:54;;;;;;;6.57;5.67;;;;;;;;;;5093583;28;20036;-57
2022/01/29 01:25:21;;;;;;;9.40;6.63;;;;;;;;;;5093878;28;20029;-57
2022/01/29 01:27:47;;;;;;;5.40;3.87;;;;;;;;;;5093357;28;20035;-58
2022/01/29 01:30:13;;;;;;;7.47;5.47;;;;;;;;;;5094088;28;20335;-57
2022/01/29 01:32:39;;;;;;;9.43;5.87;;;;;;;;;;5093872;28;20059;-56
2022/01/29 01:35:23;;;;;;;8.17;5.50;;;;;;;;;;5093659;28;20043;-57
2022/01/29 01:37:57;;;;;;;5.90;4.93;;;;;;;;;;5092927;28;20051;-58
2022/01/29 01:40:25;;;;;;;4.77;4.20;;;;;;;;;;5093825;28;20027;-57
2022/01/29 01:42:58;;;;;;;5.87;4.60;;;;;;;;;;5093835;28;20393;-57
2022/01/29 01:45:24;;;;;;;9.87;4.00;;;;;;;;;;5093534;28;20036;-57
2022/01/29 01:47:50;;;;;;;7.87;4.47;;;;;;;;;;5092743;28;20031;-58
2022/01/29 01:50:16;;;;;;;5.90;4.67;;;;;;;;;;5093331;28;20028;-57
2022/01/29 01:52:42;;;;;;;6.10;5.27;;;;;;;;;;5093102;28;20429;-57
2022/01/29 01:55:08;;;;;;;6.90;4.90;;;;;;;;;;5093511;28;20066;-57
2022/01/29 01:57:34;;;;;;;7.67;4.03;;;;;;;;;;5093361;28;20358;-57
2022/01/29 02:00:01;;;;;;;6.87;4.57;;;;;;;;;;5092300;28;20024;-57
2022/01/29 02:02:27;;;;;;;7.50;4.67;;;;;;;;;;5093214;28;20101;-58
2022/01/29 02:04:53;;;;;;;5.20;3.93;;;;;;;;;;5092968;28;20274;-57
2022/01/29 02:07:19;;;;;;;6.03;4.30;;;;;;;;;;5093050;28;20030;-57
2022/01/29 02:09:46;;;;;;;5.03;4.03;;;;;;;;;;5092508;28;20043;-58
2022/01/29 02:12:12;;;;;;;9.13;3.97;;;;;;;;;;5093008;28;20064;-57
2022/01/29 02:14:40;;;;;;;7.00;4.67;;;;;;;;;;5092954;28;20024;-58
2022/01/29 02:17:07;;;;;;;6.97;4.40;;;;;;;;;;5092857;28;20150;-57
2022/01/29 02:19:33;;;;;;;5.80;3.13;;;;;;;;;;5091924;28;20032;-57
2022/01/29 02:22:00;;;;;;;6.20;3.90;;;;;;;;;;5092761;28;20035;-57
2022/01/29 02:24:26;;;;;;;10.30;4.33;;;;;;;;;;5092721;28;20028;-57
2022/01/29 02:26:52;;;;;;;5.23;3.73;;;;;;;;;;5093003;28;20032;-57
2022/01/29 02:29:19;;;;;;;4.53;3.43;;;;;;;;;;5092312;28;20045;-57
2022/01/29 02:31:46;;;;;;;5.27;4.10;;;;;;;;;;5092668;28;20028;-57
2022/01/29 02:34:12;;;;;;;7.43;4.77;;;;;;;;;;5092286;28;20381;-57
2022/01/29 02:36:38;;;;;;;6.23;3.60;;;;;;;;;;5092892;28;20035;-57
2022/01/29 02:39:05;;;;;;;5.70;3.67;;;;;;;;;;5092007;28;20131;-57
2022/01/29 02:41:33;;;;;;;5.50;3.70;;;;;;;;;;5092830;28;20055;-57
2022/01/29 02:44:03;;;;;;;7.17;5.03;;;;;;;;;;5092619;28;20020;-57
2022/01/29 02:46:42;;;;;;;6.65;4.45;;;;;;;;;;5092645;28;20028;-57
2022/01/29 02:49:08;;;;;;;5.63;3.17;;;;;;;;;;5091839;28;20028;-57
2022/01/29 02:51:34;;;;;;;6.00;4.43;;;;;;;;;;5092704;28;20024;-57
2022/01/29 02:54:00;;;;;;;5.50;4.33;;;;;;;;;;5092430;28;20090;-57
2022/01/29 02:56:27;;;;;;;9.10;4.30;;;;;;;;;;5092385;28;20111;-57
2022/01/29 02:58:53;;;;;;;7.73;4.03;;;;;;;;;;5091561;28;20028;-56
2022/01/29 03:01:19;;;;;;;7.20;3.40;;;;;;;;;;5092232;28;20436;-57
2022/01/29 03:03:45;;;;;;;10.40;4.17;;;;;;;;;;5092322;28;20373;-57
2022/01/29 03:06:11;;;;;;;4.20;2.97;;;;;;;;;;5092096;28;20050;-57
2022/01/29 03:08:38;;;;;;;5.80;3.93;;;;;;;;;;5091437;28;20024;-57
2022/01/29 03:11:04;;;;;;;3.60;2.77;;;;;;;;;;5092335;28;20063;-57
2022/01/29 03:13:30;;;;;;;5.20;3.57;;;;;;;;;;5092175;28;20027;-55
2022/01/29 03:15:56;;;;;;;12.20;3.80;;;;;;;;;;5092204;28;20103;-56
2022/01/29 03:18:22;;;;;;;4.50;3.40;;;;;;;;;;5091656;28;20115;-57
2022/01/29 03:20:48;;;;;;;5.53;3.60;;;;;;;;;;5092239;28;20024;-57
2022/01/29 03:23:14;;;;;;;7.70;4.20;;;;;;;;;;5095139;28;20099;-57
2022/01/29 03:25:40;;;;;;;6.17;3.83;;;;;;;;;;5096433;28;20358;-57
2022/01/29 03:28:06;;;;;;;6.00;4.13;;;;;;;;;;5095415;28;20499;-57
2022/01/29 03:30:32;;;;;;;5.90;2.67;;;;;;;;;;5096115;28;20055;-58
2022/01/29 03:32:58;;;;;;;5.30;3.80;;;;;;;;;;5096127;28;20070;-58
2022/01/29 03:35:24;;;;;;;6.60;4.23;;;;;;;;;;5096298;28;20035;-58
2022/01/29 03:37:50;;;;;;;7.23;4.67;;;;;;;;;;5095267;28;20036;-57
2022/01/29 03:40:16;;;;;;;6.03;4.47;;;;;;;;;;5095977;28;20146;-57
2022/01/29 03:42:47;;;;;;;6.93;5.20;;;;;;;;;;5095941;28;20024;-57
2022/01/29 03:45:15;;;;;;;9.43;5.40;;;;;;;;;;5095802;28;20059;-57
2022/01/29 03:47:41;;;;;;;5.57;3.83;;;;;;;;;;5095666;28;20443;-57
2022/01/29 03:50:07;;;;;;;5.93;3.90;;;;;;;;;;5095482;28;20101;-56
2022/01/29 03:52:33;;;;;;;5.37;4.20;;;;;;;;;;5095657;28;20020;-57
2022/01/29 03:54:59;;;;;;;5.80;2.90;;;;;;;;;;5095781;28;20074;-57
2022/01/29 03:57:25;;;;;;;5.23;3.63;;;;;;;;;;5095613;28;20038;-57
2022/01/29 03:59:51;;;;;;;4.60;3.10;;;;;;;;;;5095128;28;20024;-57
2022/01/29 04:02:17;;;;;;;5.50;3.40;;;;;;;;;;5095660;28;20442;-58
2022/01/29 04:04:43;;;;;;;6.43;3.63;;;;;;;;;;5095615;28;20115;-57
2022/01/29 04:07:11;;;;;;;4.17;3.07;;;;;;;;;;5095247;28;20020;-57
2022/01/29 04:09:39;;;;;;;4.13;2.43;;;;;;;;;;5095061;28;20466;-57
2022/01/29 04:12:05;;;;;;;4.27;2.97;;;;;;;;;;5095162;28;20161;-57
2022/01/29 04:14:37;;;;;;;5.07;3.03;;;;;;;;;;5095445;28;20035;-57
2022/01/29 04:17:03;;;;;;;5.70;3.20;;;;;;;;;;5095562;28;20024;-57
2022/01/29 04:19:29;;;;;;;6.83;3.27;;;;;;;;;;5094558;28;20035;-57
2022/01/29 04:21:55;;;;;;;4.70;2.90;;;;;;;;;;5095262;28;20028;-57
2022/01/29 04:24:21;;;;;;;5.83;3.33;;;;;;;;;;5094865;28;20032;-56
2022/01/29 04:26:47;;;;;;;4.67;3.00;;;;;;;;;;5094873;28;20111;-57
2022/01/29 04:29:13;;;;;;;3.30;2.60;;;;;;;;;;5094533;28;20036;-57
2022/01/29 04:31:45;;;;;;;4.07;2.77;;;;;;;;;;5090121;28;20103;-57
2022/01/29 04:34:11;;;;;;;4.10;2.83;;;;;;;;;;5093770;28;20512;-57
2022/01/29 04:36:37;;;;;;;7.53;3.23;;;;;;;;;;5095207;28;20035;-57
2022/01/29 04:39:03;;;;;;;4.00;2.63;;;;;;;;;;5093928;28;20382;-56
2022/01/29 04:41:29;;;;;;;4.27;2.53;;;;;;;;;;5094721;28;20030;-57
2022/01/29 04:43:56;;;;;;;4.47;2.00;;;;;;;;;;5094870;28;20103;-57
2022/01/29 04:46:21;;;;;;;3.20;2.40;;;;;;;;;;5094770;28;20024;-55
2022/01/29 04:48:47;;;;;;;3.33;2.13;;;;;;;;;;5094044;28;20107;-57
2022/01/29 04:51:13;;;;;;;4.13;2.20;;;;;;;;;;5094682;28;20458;-57
2022/01/29 04:53:40;;;;;;;5.13;2.13;;;;;;;;;;5094388;28;20573;-57
2022/01/29 04:56:06;;;;;;;2.73;2.10;;;;;;;;;;5094376;28;20115;-57
2022/01/29 04:58:32;;;;;;;3.60;2.60;;;;;;;;;;5094133;28;20385;-57
2022/01/29 05:00:58;;;;;;;4.10;2.77;;;;;;;;;;5094868;28;20028;-57
2022/01/29 05:03:24;;;;;;;2.93;2.20;;;;;;;;;;5094444;28;20024;-57
2022/01/29 05:05:50;;;;;;;2.83;2.53;;;;;;;;;;5094211;28;20027;-58
2022/01/29 05:08:17;;;;;;;3.00;1.93;;;;;;;;;;5093366;28;20509;-57
2022/01/29 05:10:43;;;;;;;4.00;2.43;;;;;;;;;;5094083;28;20066;-57
2022/01/29 05:13:12;;;;;;;6.50;2.90;;;;;;;;;;5094338;28;20055;-57
2022/01/29 05:29:05;;;;;;;2.43;1.77;;;;;;;;;;5093485;28;20107;-57
2022/01/29 05:31:31;;;;;;;4.20;2.87;;;;;;;;;;5093948;28;20084;-57
2022/01/29 05:33:57;;;;;;;3.77;2.40;;;;;;;;;;5094060;28;20052;-58
2022/01/29 05:36:23;;;;;;;4.33;2.07;;;;;;;;;;5093833;28;20404;-57
2022/01/29 05:38:49;;;;;;;2.20;1.67;;;;;;;;;;5092941;28;20097;-58
2022/01/29 05:41:15;;;;;;;3.10;1.90;;;;;;;;;;5093868;28;20340;-57
2022/01/29 05:43:43;;;;;;;4.87;2.47;;;;;;;;;;5093704;28;20100;-57
2022/01/29 05:46:09;;;;;;;3.20;2.53;;;;;;;;;;5093418;28;20035;-58
2022/01/29 05:48:35;;;;;;;3.33;2.07;;;;;;;;;;5093483;28;20132;-57
2022/01/29 05:51:01;;;;;;;5.73;2.93;;;;;;;;;;5093999;28;20034;-58
2022/01/29 05:53:27;;;;;;;4.37;3.07;;;;;;;;;;5093466;28;20036;-57
2022/01/29 05:55:53;;;;;;;4.33;3.03;;;;;;;;;;5093328;28;20020;-58
2022/01/29 05:58:19;;;;;;;5.37;4.07;;;;;;;;;;5092623;28;20036;-58
2022/01/29 06:00:45;;;;;;;4.27;2.80;;;;;;;;;;5093525;28;20102;-58
2022/01/29 06:03:11;;;;;;;6.17;4.13;;;;;;;;;;5093447;28;20027;-58
2022/01/29 06:05:37;;;;;;;7.03;4.60;;;;;;;;;;5093230;28;20038;-58
2022/01/29 06:08:04;;;;;;;6.67;4.27;;;;;;;;;;5092575;28;20239;-59
2022/01/29 06:10:30;;;;;;;6.50;5.17;;;;;;;;;;5092968;28;20028;-59
2022/01/29 06:13:09;;;;;;;7.00;4.90;;;;;;;;;;5092911;28;20221;-59
2022/01/29 06:15:41;;;;;;;6.33;4.70;;;;;;;;;;5093129;28;20110;-59
2022/01/29 06:18:10;;;;;;;6.87;4.90;;;;;;;;;;5092420;28;20079;-59
2022/01/29 06:20:36;;;;;;;6.83;5.27;;;;;;;;;;5092946;28;20032;-59
2022/01/29 06:23:03;;;;;;;8.00;4.83;;;;;;;;;;5092884;28;20073;-59
2022/01/29 06:25:29;;;;;;;5.60;4.13;;;;;;;;;;5092524;28;20032;-59
2022/01/29 06:27:55;;;;;;;10.43;4.90;;;;;;;;;;5092352;28;20032;-60
2022/01/29 06:30:21;;;;;;;8.50;6.23;;;;;;;;;;5093000;28;20020;-60
2022/01/29 06:32:47;;;;;;;9.03;4.53;;;;;;;;;;5093054;28;20457;-58
2022/01/29 06:35:13;;;;;;;5.83;4.33;;;;;;;;;;5092600;28;20059;-58
2022/01/29 06:37:39;;;;;;;6.97;5.63;;;;;;;;;;5092514;28;20024;-58
2022/01/29 06:40:06;;;;;;;6.67;5.97;;;;;;;;;;5091826;28;20024;-59
2022/01/29 06:42:32;;;;;;;7.43;4.70;;;;;;;;;;5092663;28;20031;-58
2022/01/29 06:44:58;;;;;;;7.13;5.17;;;;;;;;;;5092800;28;20043;-58
2022/01/29 06:47:24;;;;;;;9.03;5.43;;;;;;;;;;5092543;28;20111;-58
2022/01/29 06:49:50;;;;;;;7.77;5.00;;;;;;;;;;5092091;28;20036;-58
2022/01/29 06:52:15;;;;;;;6.93;5.37;;;;;;;;;;5092424;28;20031;-58
2022/01/29 06:54:42;;;;;;;7.87;5.00;;;;;;;;;;5092282;28;20098;-59
2022/01/29 06:57:08;;;;;;;8.67;5.37;;;;;;;;;;5091955;28;20021;-58
2022/01/29 06:59:34;;;;;;;6.57;5.07;;;;;;;;;;5091506;28;20162;-59
2022/01/29 07:01:59;;;;;;;10.03;6.60;;;;;;;;;;5092217;28;20114;-58
2022/01/29 07:04:25;;;;;;;7.67;6.30;;;;;;;;;;5092504;28;20028;-58
2022/01/29 07:06:51;;;;;;;6.77;5.43;;;;;;;;;;5092171;28;20071;-58
2022/01/29 07:09:17;;;;;;;8.07;5.37;;;;;;;;;;5091374;28;20028;-58
2022/01/29 07:11:45;;;;;;;8.30;6.00;;;;;;;;;;5092174;28;20078;-58
2022/01/29 07:14:16;;;;;;;10.57;6.50;;;;;;;;;;5092266;28;20470;-58
2022/01/29 07:16:43;;;;;;;7.30;6.50;;;;;;;;;;5092307;28;20028;-57
2022/01/29 07:19:09;;;;;;;8.93;6.50;;;;;;;;;;5091629;28;20036;-58
2022/01/29 07:21:35;;;;;;;6.20;5.13;;;;;;;;;;5092144;28;20031;-59
2022/01/29 07:24:01;;;;;;;7.17;4.93;;;;;;;;;;5092092;28;20168;-58
2022/01/29 07:26:27;;;;;;;6.50;4.70;;;;;;;;;;5092241;28;20070;-59
2022/01/29 07:28:53;;;;;;;8.97;5.80;;;;;;;;;;5091668;28;20028;-58
2022/01/29 07:31:19;;;;;;;6.83;5.57;;;;;;;;;;5092108;28;20024;-59
2022/01/29 07:33:45;;;;;;;11.07;5.60;;;;;;;;;;5090776;28;20028;-58
2022/01/29 07:36:11;;;;;;;8.40;5.00;;;;;;;;;;5092103;28;20085;-58
2022/01/29 07:38:37;;;;;;;11.47;5.80;;;;;;;;;;5091108;28;20033;-59
2022/01/29 07:41:03;;;;;;;7.27;4.43;;;;;;;;;;5092124;28;20046;-58
2022/01/29 07:43:29;;;;;;;5.77;5.07;;;;;;;;;;5091867;28;20038;-59
2022/01/29 07:45:55;;;;;;;4.70;3.80;;;;;;;;;;5091937;28;20016;-59
2022/01/29 07:48:21;;;;;;;5.73;4.90;;;;;;;;;;5091311;28;20032;-59
2022/01/29 07:50:47;;;;;;;8.13;4.37;;;;;;;;;;5091664;28;20035;-57
2022/01/29 07:53:13;;;;;;;5.20;3.83;;;;;;;;;;5090335;28;20377;-59
2022/01/29 07:55:39;;;;;;;7.93;3.27;;;;;;;;;;5092033;28;20032;-58
2022/01/29 07:58:05;;;;;;;4.40;2.90;;;;;;;;;;5091269;28;20115;-59
2022/01/29 08:00:31;;;;;;;4.53;3.47;;;;;;;;;;5090570;28;20028;-58
2022/01/29 08:02:57;;;;;;;4.93;2.70;;;;;;;;;;5091658;28;20024;-58
2022/01/29 08:05:23;;;;;;;4.20;2.93;;;;;;;;;;5091630;28;20021;-58
2022/01/29 08:07:50;;;;;;;5.33;3.17;;;;;;;;;;5091247;28;20055;-60
2022/01/29 08:10:16;;;;;;;3.80;2.77;;;;;;;;;;5095688;28;20032;-58
2022/01/29 08:12:42;;;;;;;4.07;2.90;;;;;;;;;;5095127;28;20355;-59
2022/01/29 08:15:08;;;;;;;8.07;2.73;;;;;;;;;;5095492;28;20036;-56
2022/01/29 08:17:34;;;;;;;6.83;2.97;;;;;;;;;;5095169;28;20027;-60
2022/01/29 08:20:00;;;;;;;4.37;2.97;;;;;;;;;;5094489;28;20030;-57
2022/01/29 08:22:26;;;;;;;4.90;2.63;;;;;;;;;;5095306;28;20021;-62
2022/01/29 08:24:53;;;;;;;3.30;2.33;;;;;;;;;;5095289;28;20020;-59
2022/01/29 08:27:20;;;;;;;6.00;3.50;;;;;;;;;;5095185;28;20024;-58
2022/01/29 08:29:45;;;;;;;4.13;2.80;;;;;;;;;;5094257;28;20038;-58
2022/01/29 08:32:11;;;;;;;5.50;2.30;;;;;;;;;;5095057;28;20111;-58
2022/01/29 08:34:39;;;;;;;2.90;1.97;;;;;;;;;;5094690;28;20439;-58
2022/01/29 08:37:05;;;;;;;4.10;2.93;;;;;;;;;;5095358;28;20035;-59
2022/01/29 08:39:31;;;;;;;9.70;3.00;;;;;;;;;;5094200;28;20047;-58
2022/01/29 08:41:57;;;;;;;4.93;2.43;;;;;;;;;;5095221;28;20028;-59
2022/01/29 08:44:24;;;;;;;4.97;2.47;;;;;;;;;;5094923;28;20068;-58
2022/01/29 08:46:50;;;;;;;4.27;3.13;;;;;;;;;;5094769;28;20024;-57
2022/01/29 08:49:16;;;;;;;5.13;3.00;;;;;;;;;;5093955;28;20298;-59
2022/01/29 08:51:42;;;;;;;3.53;2.03;;;;;;;;;;5095089;28;20103;-57
2022/01/29 08:54:08;;;;;;;5.33;3.00;;;;;;;;;;5094715;28;20028;-58
2022/01/29 08:56:34;;;;;;;4.30;2.90;;;;;;;;;;5094224;28;20020;-58
2022/01/29 08:59:00;;;;;;;7.03;3.03;;;;;;;;;;5091871;28;20028;-59
2022/01/29 09:01:25;;;;;;;6.47;3.63;;;;;;;;;;5092460;28;20443;-57
2022/01/29 09:03:51;;;;;;;4.53;3.30;;;;;;;;;;5092136;28;20036;-58
2022/01/29 09:06:18;;;;;;;4.67;3.13;;;;;;;;;;5092177;28;20028;-58
2022/01/29 09:08:50;;;;;;;7.57;3.33;;;;;;;;;;5091675;28;20024;-58
2022/01/29 09:11:16;;;;;;;3.83;3.20;;;;;;;;;;5092398;28;20027;-58
2022/01/29 09:13:42;;;;;;;4.53;3.10;;;;;;;;;;5093060;28;20046;-58
2022/01/29 09:16:08;;;;;;;7.57;3.70;;;;;;;;;;5094193;28;20115;-56
2022/01/29 09:18:34;;;;;;;6.63;3.10;;;;;;;;;;5093235;28;20127;-58
2022/01/29 09:21:00;;;;;;;6.40;3.80;;;;;;;;;;5093601;28;20077;-59
2022/01/29 09:23:26;;;;;;;3.40;2.80;;;;;;;;;;5094293;28;20036;-58
2022/01/29 09:25:52;;;;;;;5.67;3.37;;;;;;;;;;5094035;28;20017;-59
2022/01/29 09:28:18;;;;;;;5.72;4.05;;;;;;;;;;5093227;28;20122;-58
2022/01/29 09:30:45;;;;;;;5.00;3.72;;;;;;;;;;5093677;28;20141;-58
2022/01/29 09:33:11;;;;;;;5.45;3.45;;;;;;;;;;5093891;28;20414;-57
2022/01/29 09:35:38;;;;;;;4.33;2.80;;;;;;;;;;5093862;28;20119;-57
2022/01/29 09:38:05;;;;;;;10.88;4.13;;;;;;;;;;5093148;28;20082;-58
2022/01/29 09:40:31;;;;;;;8.48;4.78;;;;;;;;;;5093762;28;20028;-58
2022/01/29 09:42:59;;;;;;;6.82;4.07;;;;;;;;;;5093917;28;20035;-59
2022/01/29 09:45:25;;;;;;;5.23;4.10;;;;;;;;;;5093374;28;20458;-57
2022/01/29 09:48:01;;;;;;;5.13;3.73;;;;;;;;;;5092987;28;20477;-58
2022/01/29 09:50:27;;;;;;;6.28;3.53;;;;;;;;;;5093772;28;20035;-57
2022/01/29 09:52:53;;;;;;;5.60;4.13;;;;;;;;;;5093438;28;20107;-57
2022/01/29 09:55:19;;;;;;;5.55;3.40;;;;;;;;;;5093512;28;20028;-57
2022/01/29 09:57:45;;;;;;;5.07;3.50;;;;;;;;;;5093107;28;20024;-58
2022/01/29 10:00:11;;;;;;;4.35;3.17;;;;;;;;;;5092873;28;20499;-58
2022/01/29 10:02:37;;;;;;;7.60;4.65;;;;;;;;;;5093451;28;20062;-58
2022/01/29 10:05:04;;;;;;;10.65;4.43;;;;;;;;;;5093474;28;20056;-58
2022/01/29 10:07:33;;;;;;;5.25;3.58;;;;;;;;;;5093177;28;20020;-58
2022/01/29 10:10:00;;;;;;;6.72;4.10;;;;;;;;;;5092574;28;20028;-58
2022/01/29 10:12:30;;;;;;;7.13;4.13;;;;;;;;;;5092943;28;20481;-57
2022/01/29 10:15:04;;;;;;;7.32;4.10;;;;;;;;;;5093195;28;20043;-58
2022/01/29 10:17:49;;;;;;;5.88;4.05;;;;;;;;;;5093404;28;20019;-58
2022/01/29 10:20:15;;;;;;;4.88;3.42;;;;;;;;;;5092993;28;20079;-58
2022/01/29 10:22:44;;;;;;;4.70;3.53;;;;;;;;;;5092983;28;20044;-58
2022/01/29 10:25:15;;;;;;;5.63;3.20;;;;;;;;;;5092694;28;20016;-58
2022/01/29 10:28:01;;;;;;;5.55;3.63;;;;;;;;;;5092987;28;20028;-58
2022/01/29 10:30:30;;;;;;;5.20;3.75;;;;;;;;;;5092875;28;20047;-58
2022/01/29 10:33:15;;;;;;;4.65;2.97;;;;;;;;;;5091863;28;20036;-58
2022/01/29 10:35:44;;;;;;;5.18;2.80;;;;;;;;;;5092871;28;20081;-58
2022/01/29 10:38:10;;;;;;;5.10;3.65;;;;;;;;;;5092055;28;20044;-58
2022/01/29 10:40:38;;;;;;;7.18;3.50;;;;;;;;;;5092772;28;20028;-58
2022/01/29 10:43:04;;;;;;;5.22;3.40;;;;;;;;;;5092557;28;20032;-56
2022/01/29 10:45:34;;;;;;;5.07;3.33;;;;;;;;;;5092521;28;20031;-57
2022/01/29 10:48:00;;;;;;;4.57;3.15;;;;;;;;;;5091784;28;20036;-58
2022/01/29 10:50:27;;;;;;;6.43;4.70;;;;;;;;;;5092834;28;20099;-58
2022/01/29 10:52:55;;;;;;;3.78;2.85;;;;;;;;;;5092812;28;20020;-58
2022/01/29 10:55:21;;;;;;;3.53;2.60;;;;;;;;;;5092592;28;20077;-58
2022/01/29 10:57:48;;;;;;;5.85;3.35;;;;;;;;;;5091821;28;20020;-59
2022/01/29 11:00:20;;;;;;;9.48;4.07;;;;;;;;;;5092344;28;20107;-57
2022/01/29 11:02:46;;;;;;;4.97;2.88;;;;;;;;;;5091692;28;20038;-58
2022/01/29 11:05:13;;;;;;;4.07;2.75;;;;;;;;;;5084357;28;20021;-57
2022/01/29 11:07:41;;;;;;;5.18;3.15;;;;;;;;;;5084050;28;20036;-58
2022/01/29 11:10:08;;;;;;;3.67;2.13;;;;;;;;;;5090713;28;20107;-57
2022/01/29 11:12:38;;;;;;;4.15;1.73;;;;;;;;;;5090122;28;20039;-59
2022/01/29 11:15:05;;;;;;;3.08;1.90;;;;;;;;;;5089903;28;20023;-58
2022/01/29 11:17:32;;;;;;;2.40;1.40;;;;;;;;;;5090011;28;20020;-58
2022/01/29 11:20:00;;;;;;;2.78;1.65;;;;;;;;;;5087826;28;20327;-58
2022/01/29 11:22:28;;;;;;;2.72;1.75;;;;;;;;;;5090239;28;20039;-58
2022/01/29 11:24:57;;;;;;;3.17;1.98;;;;;;;;;;5090093;28;20132;-58
2022/01/29 11:27:30;;;;;;;4.53;1.45;;;;;;;;;;5092076;28;20031;-58
2022/01/29 11:29:57;;;;;;;2.90;2.10;;;;;;;;;;5091258;28;20114;-58
2022/01/29 11:32:23;;;;;;;2.95;1.92;;;;;;;;;;5091916;28;20517;-58
2022/01/29 11:35:08;;;;;;;4.43;2.25;;;;;;;;;;5091851;28;20354;-59
2022/01/29 11:37:44;;;;;;;4.03;1.70;;;;;;;;;;5092006;28;20028;-59
2022/01/29 11:40:24;;;;;;;3.88;1.60;;;;;;;;;;5091265;28;20042;-58
2022/01/29 11:42:55;;;;;;;2.88;1.45;;;;;;;;;;5092471;28;20031;-59
2022/01/29 11:45:21;;;;;;;;;;;;;;;;;;5096264;28;20064;-58
2022/01/29 11:47:47;;;;;;;3.00;2.00;;;;;;;;;;5095269;28;19911;-59
2022/01/29 11:50:19;;;;;;;3.95;2.20;;;;;;;;;;5095784;28;20028;-58
2022/01/29 11:52:55;;;;;;;2.15;1.30;;;;;;;;;;5095546;28;20032;-59
2022/01/29 11:55:34;;;;;;;3.47;2.25;;;;;;;;;;5095884;28;20039;-58
2022/01/29 11:58:19;;;;;;;2.70;1.65;;;;;;;;;;5095256;28;20028;-58
2022/01/29 12:00:46;;;;;;;5.38;1.63;;;;;;;;;;5095127;28;20020;-58
2022/01/29 12:03:32;;;;;;;2.38;1.30;;;;;;;;;;5095569;28;20024;-58
2022/01/29 12:09:05;;;;;;;4.90;2.40;;;;;;;;;;5095040;28;20039;-59
2022/01/29 12:11:32;;;;;;;1.75;1.27;;;;;;;;;;5095561;28;20035;-58
2022/01/29 12:14:13;;;;;;;2.55;1.27;;;;;;;;;;5095481;28;20020;-59
2022/01/29 12:16:47;;;;;;;2.60;1.50;;;;;;;;;;5095559;28;20034;-58
2022/01/29 12:19:31;;;;;;;4.38;1.90;;;;;;;;;;5092189;28;20046;-58
2022/01/29 12:21:57;;;;;;;3.17;1.85;;;;;;;;;;5095061;28;20024;-58
2022/01/29 12:24:23;;;;;;;3.03;2.13;;;;;;;;;;5095237;28;20028;-58
2022/01/29 12:26:56;;;;;;;3.08;1.35;;;;;;;;;;5095664;28;20032;-58
2022/01/29 12:29:22;;;;;;;2.88;1.60;;;;;;;;;;5094452;28;20071;-58
2022/01/29 12:31:52;;;;;;;3.45;1.92;;;;;;;;;;5094901;28;20035;-58
2022/01/29 12:34:20;;;;;;;4.95;2.58;;;;;;;;;;5094390;28;20020;-59
2022/01/29 12:36:46;;;;;;;2.53;1.63;;;;;;;;;;5095124;28;20048;-58
2022/01/29 12:39:20;;;;;;;3.00;1.65;;;;;;;;;;5094257;28;20036;-58
2022/01/29 12:41:48;;;;;;;3.33;1.45;;;;;;;;;;5094916;28;20032;-58
2022/01/29 12:44:18;;;;;;;3.67;2.42;;;;;;;;;;5094702;28;20024;-58
2022/01/29 12:46:46;;;;;;;3.10;1.70;;;;;;;;;;5094605;28;20059;-58
2022/01/29 12:49:12;;;;;;;2.08;1.63;;;;;;;;;;5094131;28;20379;-58
2022/01/29 12:51:58;;;;;;;2.85;1.60;;;;;;;;;;5094570;28;20021;-57
2022/01/29 12:54:25;;;;;;;4.60;2.08;;;;;;;;;;5093885;28;20048;-58
2022/01/29 12:56:51;;;;;;;3.70;1.35;;;;;;;;;;5094616;28;20027;-58
2022/01/29 12:59:17;;;;;;;2.78;1.30;;;;;;;;;;5093577;28;20036;-58
2022/01/29 13:01:44;;;;;;;2.55;1.23;;;;;;;;;;5094613;28;20031;-56
2022/01/29 13:04:17;;;;;;;1.42;0.77;;;;;;;;;;5094354;28;20028;-56
2022/01/29 13:06:43;;;;;;;1.85;1.17;;;;;;;;;;5094226;28;20055;-58
2022/01/29 13:09:16;;;;;;;2.90;1.58;;;;;;;;;;5093561;28;20040;-58
2022/01/29 13:11:42;;;;;;;1.25;0.80;;;;;;;;;;5094044;28;20117;-57
2022/01/29 13:14:12;;;;;;;2.38;1.10;;;;;;;;;;5094442;28;20025;-58
2022/01/29 13:16:39;;;;;;;3.03;1.05;;;;;;;;;;5093521;28;20063;-57
2022/01/29 13:19:05;;;;;;;2.30;1.52;;;;;;;;;;5080023;28;20393;-58
2022/01/29 13:21:32;;;;;;;2.75;1.17;;;;;;;;;;5071100;28;20020;-58
2022/01/29 13:23:59;;;;;;;4.85;1.45;;;;;;;;;;5081140;28;20028;-56
2022/01/29 13:26:29;;;;;;;3.75;1.70;;;;;;;;;;5071407;28;20021;-58
2022/01/29 13:29:05;;;;;;;2.45;1.23;;;;;;;;;;5070809;28;20510;-58
2022/01/29 13:31:44;;;;;;;2.25;1.48;;;;;;;;;;5071078;28;20029;-58
2022/01/29 13:34:26;;;;;;;1.95;1.23;;;;;;;;;;5071034;28;20032;-59
2022/01/29 13:36:52;;;;;;;5.03;1.27;;;;;;;;;;5071024;28;20032;-58
2022/01/29 13:39:19;;;;;;;3.72;1.33;;;;;;;;;;5068391;28;20039;-58
2022/01/29 13:41:45;;;;;;;2.03;1.30;;;;;;;;;;5070494;28;20036;-58
2022/01/29 13:44:11;;;;;;;1.80;1.05;;;;;;;;;;5070895;28;20023;-56
2022/01/29 13:46:38;;;;;;;2.28;1.10;;;;;;;;;;5070929;28;20021;-59
2022/01/29 13:49:06;;;;;;;2.95;1.40;;;;;;;;;;5069913;28;20029;-58
2022/01/29 13:51:34;;;;;;;2.38;1.23;;;;;;;;;;5070109;28;20090;-58
2022/01/29 13:54:00;;;;;;;1.77;0.95;;;;;;;;;;5081079;28;20024;-58
2022/01/29 13:56:30;;;;;;;2.22;1.08;;;;;;;;;;5070440;28;20613;-58
2022/01/29 13:59:01;;;;;;;2.80;1.50;;;;;;;;;;5069878;28;20037;-58
2022/01/29 14:01:46;;;;;;;3.13;1.50;;;;;;;;;;5070288;28;20051;-58
2022/01/29 14:04:24;;;;;;;1.80;1.10;;;;;;;;;;5070478;28;20044;-58
2022/01/29 14:06:55;;;;;;;1.92;1.15;;;;;;;;;;5071864;28;20037;-58
2022/01/29 14:09:31;;;;;;;1.77;0.88;;;;;;;;;;5090077;28;20370;-58
2022/01/29 14:12:02;;;;;;;1.50;0.47;;;;;;;;;;5085780;28;20111;-58
2022/01/29 14:14:30;;;;;;;2.10;1.08;;;;;;;;;;5070485;28;20162;-58
2022/01/29 14:16:56;;;;;;;2.47;1.48;;;;;;;;;;5070105;28;20085;-58
2022/01/29 14:19:23;;;;;;;3.50;1.63;;;;;;;;;;5067091;28;20429;-58
2022/01/29 14:21:50;;;;;;;2.63;1.52;;;;;;;;;;5070130;28;20108;-58
2022/01/29 14:24:17;;;;;;;2.75;1.05;;;;;;;;;;5070008;28;20076;-58
2022/01/29 14:26:43;;;;;;;2.00;1.23;;;;;;;;;;5069453;28;20119;-58
2022/01/29 14:29:09;;;;;;;4.05;1.35;;;;;;;;;;5069466;28;20103;-58
2022/01/29 14:31:35;;;;;;;1.63;1.00;;;;;;;;;;5069518;28;20040;-57
2022/01/29 14:34:02;;;;;;;1.83;1.13;;;;;;;;;;5070123;28;20136;-57
2022/01/29 14:36:29;;;;;;;2.75;1.20;;;;;;;;;;5069621;28;20040;-58
2022/01/29 14:38:55;;;;;;;2.13;1.25;;;;;;;;;;5067353;28;20036;-57
2022/01/29 14:41:21;;;;;;;2.83;1.25;;;;;;;;;;5069443;28;20051;-58
2022/01/29 14:43:47;;;;;;;2.45;1.40;;;;;;;;;;5069709;28;20066;-57
2022/01/29 14:46:13;;;;;;;3.58;1.75;;;;;;;;;;5069742;28;20033;-57
2022/01/29 14:48:39;;;;;;;2.60;1.42;;;;;;;;;;5069335;28;20064;-59
2022/01/29 14:51:08;;;;;;;2.35;1.40;;;;;;;;;;5069734;28;20038;-58
2022/01/29 14:53:34;;;;;;;2.90;1.38;;;;;;;;;;5087506;28;20111;-59
2022/01/29 14:56:00;;;;;;;3.20;1.40;;;;;;;;;;5070944;28;20124;-58
2022/01/29 14:58:26;;;;;;;2.65;1.35;;;;;;;;;;5069283;28;20430;-58
2022/01/29 15:00:52;;;;;;;3.40;1.98;;;;;;;;;;5069607;28;20111;-59
2022/01/29 15:03:18;;;;;;;3.53;1.58;;;;;;;;;;5069783;28;20040;-58